sensor_id;sensor_type;location;lat;lon;timestamp;P1;durP1;ratioP1;P2;durP2;ratioP2
76063;SDS011;64762;52.006;8.424;2023-05-02T00:02:10;12.40;;;8.45;;
76063;SDS011;64762;52.006;8.424;2023-05-02T00:04:35;15.53;;;9.03;;
76063;SDS011;64762;52.006;8.424;2023-05-02T00:07:00;14.40;;;9.33;;
76063;SDS011;64762;52.006;8.424;2023-05-02T00:09:26;14.47;;;9.33;;
76063;SDS011;64762;52.006;8.424;2023-05-02T00:11:51;18.40;;;9.50;;
76063;SDS011;64762;52.006;8.424;2023-05-02T00:14:16;14.17;;;9.83;;
76063;SDS011;64762;52.006;8.424;2023-05-02T00:16:42;15.60;;;10.30;;
76063;SDS011;64762;52.006;8.424;2023-05-02T00:19:07;17.73;;;9.90;;
76063;SDS011;64762;52.006;8.424;2023-05-02T00:21:32;17.00;;;9.87;;
76063;SDS011;64762;52.006;8.424;2023-05-02T00:23:58;15.90;;;9.17;;
76063;SDS011;64762;52.006;8.424;2023-05-02T00:26:24;13.90;;;9.77;;
76063;SDS011;64762;52.006;8.424;2023-05-02T00:28:49;14.13;;;9.80;;
76063;SDS011;64762;52.006;8.424;2023-05-02T00:31:14;15.70;;;9.38;;
76063;SDS011;64762;52.006;8.424;2023-05-02T00:33:40;16.48;;;10.25;;
76063;SDS011;64762;52.006;8.424;2023-05-02T00:36:15;16.27;;;9.97;;
76063;SDS011;64762;52.006;8.424;2023-05-02T00:38:41;14.90;;;9.90;;
76063;SDS011;64762;52.006;8.424;2023-05-02T00:41:07;17.42;;;10.57;;
76063;SDS011;64762;52.006;8.424;2023-05-02T00:43:32;16.93;;;9.97;;
76063;SDS011;64762;52.006;8.424;2023-05-02T00:45:57;14.70;;;9.97;;
76063;SDS011;64762;52.006;8.424;2023-05-02T00:48:24;17.67;;;9.85;;
76063;SDS011;64762;52.006;8.424;2023-05-02T00:50:49;15.15;;;9.98;;
76063;SDS011;64762;52.006;8.424;2023-05-02T00:53:15;16.50;;;10.80;;
76063;SDS011;64762;52.006;8.424;2023-05-02T00:55:40;14.93;;;10.03;;
76063;SDS011;64762;52.006;8.424;2023-05-02T00:58:08;15.50;;;10.23;;
76063;SDS011;64762;52.006;8.424;2023-05-02T01:00:45;19.15;;;10.35;;
76063;SDS011;64762;52.006;8.424;2023-05-02T01:03:35;16.83;;;10.00;;
76063;SDS011;64762;52.006;8.424;2023-05-02T01:11:29;20.33;;;11.88;;
76063;SDS011;64762;52.006;8.424;2023-05-02T01:14:00;25.08;;;12.60;;
76063;SDS011;64762;52.006;8.424;2023-05-02T01:16:28;23.65;;;12.80;;
76063;SDS011;64762;52.006;8.424;2023-05-02T01:18:54;25.40;;;13.98;;
76063;SDS011;64762;52.006;8.424;2023-05-02T01:21:20;33.30;;;15.20;;
76063;SDS011;64762;52.006;8.424;2023-05-02T01:29:01;34.25;;;16.23;;
76063;SDS011;64762;52.006;8.424;2023-05-02T01:31:30;39.90;;;17.58;;
76063;SDS011;64762;52.006;8.424;2023-05-02T01:33:59;39.90;;;17.70;;
76063;SDS011;64762;52.006;8.424;2023-05-02T01:36:25;40.78;;;18.75;;
76063;SDS011;64762;52.006;8.424;2023-05-02T01:38:51;44.20;;;20.27;;
76063;SDS011;64762;52.006;8.424;2023-05-02T01:41:17;44.20;;;20.60;;
76063;SDS011;64762;52.006;8.424;2023-05-02T01:43:42;40.50;;;18.65;;
76063;SDS011;64762;52.006;8.424;2023-05-02T01:46:08;43.88;;;19.98;;
76063;SDS011;64762;52.006;8.424;2023-05-02T01:48:34;45.95;;;19.83;;
76063;SDS011;64762;52.006;8.424;2023-05-02T01:51:00;48.10;;;20.38;;
76063;SDS011;64762;52.006;8.424;2023-05-02T01:53:27;47.00;;;20.38;;
76063;SDS011;64762;52.006;8.424;2023-05-02T01:55:53;43.38;;;19.65;;
76063;SDS011;64762;52.006;8.424;2023-05-02T01:58:19;50.17;;;21.20;;
76063;SDS011;64762;52.006;8.424;2023-05-02T02:00:45;52.55;;;21.48;;
76063;SDS011;64762;52.006;8.424;2023-05-02T02:03:11;48.15;;;21.33;;
76063;SDS011;64762;52.006;8.424;2023-05-02T02:05:37;43.20;;;19.45;;
76063;SDS011;64762;52.006;8.424;2023-05-02T02:08:03;53.75;;;22.38;;
76063;SDS011;64762;52.006;8.424;2023-05-02T02:10:31;47.00;;;21.40;;
76063;SDS011;64762;52.006;8.424;2023-05-02T02:13:03;52.83;;;22.13;;
76063;SDS011;64762;52.006;8.424;2023-05-02T02:15:35;52.13;;;21.58;;
76063;SDS011;64762;52.006;8.424;2023-05-02T02:18:12;46.90;;;21.02;;
76063;SDS011;64762;52.006;8.424;2023-05-02T02:20:40;48.67;;;21.10;;
76063;SDS011;64762;52.006;8.424;2023-05-02T02:23:07;53.60;;;22.25;;
76063;SDS011;64762;52.006;8.424;2023-05-02T02:25:33;50.03;;;22.02;;
76063;SDS011;64762;52.006;8.424;2023-05-02T02:27:59;54.35;;;21.20;;
76063;SDS011;64762;52.006;8.424;2023-05-02T02:30:25;51.65;;;22.70;;
76063;SDS011;64762;52.006;8.424;2023-05-02T02:32:50;56.83;;;23.83;;
76063;SDS011;64762;52.006;8.424;2023-05-02T02:35:16;53.08;;;22.95;;
76063;SDS011;64762;52.006;8.424;2023-05-02T02:37:53;47.23;;;21.30;;
76063;SDS011;64762;52.006;8.424;2023-05-02T02:42:56;50.90;;;22.05;;
76063;SDS011;64762;52.006;8.424;2023-05-02T02:48:01;52.45;;;22.33;;
76063;SDS011;64762;52.006;8.424;2023-05-02T02:50:49;53.35;;;22.33;;
76063;SDS011;64762;52.006;8.424;2023-05-02T02:53:24;52.67;;;22.35;;
76063;SDS011;64762;52.006;8.424;2023-05-02T02:55:55;49.63;;;20.05;;
76063;SDS011;64762;52.006;8.424;2023-05-02T03:01:10;51.55;;;21.05;;
76063;SDS011;64762;52.006;8.424;2023-05-02T03:03:40;52.20;;;20.88;;
76063;SDS011;64762;52.006;8.424;2023-05-02T03:06:06;49.30;;;20.42;;
76063;SDS011;64762;52.006;8.424;2023-05-02T03:08:38;55.07;;;21.20;;
76063;SDS011;64762;52.006;8.424;2023-05-02T03:11:05;52.80;;;20.52;;
76063;SDS011;64762;52.006;8.424;2023-05-02T03:13:30;55.27;;;20.60;;
76063;SDS011;64762;52.006;8.424;2023-05-02T03:18:51;50.88;;;19.30;;
76063;SDS011;64762;52.006;8.424;2023-05-02T03:21:16;49.10;;;20.43;;
76063;SDS011;64762;52.006;8.424;2023-05-02T03:23:41;49.97;;;20.40;;
76063;SDS011;64762;52.006;8.424;2023-05-02T03:26:07;48.73;;;19.07;;
76063;SDS011;64762;52.006;8.424;2023-05-02T03:28:32;52.40;;;20.43;;
76063;SDS011;64762;52.006;8.424;2023-05-02T03:30:57;52.53;;;19.77;;
76063;SDS011;64762;52.006;8.424;2023-05-02T03:33:23;45.60;;;16.83;;
76063;SDS011;64762;52.006;8.424;2023-05-02T03:35:48;53.35;;;19.08;;
76063;SDS011;64762;52.006;8.424;2023-05-02T03:38:13;48.20;;;18.27;;
76063;SDS011;64762;52.006;8.424;2023-05-02T03:40:39;43.60;;;16.40;;
76063;SDS011;64762;52.006;8.424;2023-05-02T03:43:04;45.90;;;17.10;;
76063;SDS011;64762;52.006;8.424;2023-05-02T03:45:29;51.93;;;17.50;;
76063;SDS011;64762;52.006;8.424;2023-05-02T03:47:54;46.87;;;16.03;;
76063;SDS011;64762;52.006;8.424;2023-05-02T03:50:20;43.80;;;16.53;;
76063;SDS011;64762;52.006;8.424;2023-05-02T03:52:45;43.67;;;16.70;;
76063;SDS011;64762;52.006;8.424;2023-05-02T03:55:11;48.22;;;17.92;;
76063;SDS011;64762;52.006;8.424;2023-05-02T03:57:36;46.37;;;19.27;;
76063;SDS011;64762;52.006;8.424;2023-05-02T04:00:01;46.87;;;17.70;;
76063;SDS011;64762;52.006;8.424;2023-05-02T04:02:26;45.03;;;16.87;;
76063;SDS011;64762;52.006;8.424;2023-05-02T04:04:52;46.27;;;16.60;;
76063;SDS011;64762;52.006;8.424;2023-05-02T04:07:17;47.30;;;17.80;;
76063;SDS011;64762;52.006;8.424;2023-05-02T04:09:43;45.97;;;17.00;;
76063;SDS011;64762;52.006;8.424;2023-05-02T04:12:09;45.20;;;17.80;;
76063;SDS011;64762;52.006;8.424;2023-05-02T04:14:34;46.90;;;18.90;;
76063;SDS011;64762;52.006;8.424;2023-05-02T04:16:59;48.10;;;17.73;;
76063;SDS011;64762;52.006;8.424;2023-05-02T04:19:25;42.07;;;17.57;;
76063;SDS011;64762;52.006;8.424;2023-05-02T04:21:51;48.30;;;16.48;;
76063;SDS011;64762;52.006;8.424;2023-05-02T04:24:16;42.33;;;16.67;;
76063;SDS011;64762;52.006;8.424;2023-05-02T04:26:41;41.20;;;16.30;;
76063;SDS011;64762;52.006;8.424;2023-05-02T04:29:07;55.03;;;17.35;;
76063;SDS011;64762;52.006;8.424;2023-05-02T04:31:32;38.63;;;15.83;;
76063;SDS011;64762;52.006;8.424;2023-05-02T04:33:57;44.47;;;15.30;;
76063;SDS011;64762;52.006;8.424;2023-05-02T04:36:23;45.83;;;16.00;;
76063;SDS011;64762;52.006;8.424;2023-05-02T04:38:49;42.33;;;15.80;;
76063;SDS011;64762;52.006;8.424;2023-05-02T04:41:15;43.47;;;15.60;;
76063;SDS011;64762;52.006;8.424;2023-05-02T04:43:41;42.25;;;16.20;;
76063;SDS011;64762;52.006;8.424;2023-05-02T04:46:06;40.33;;;15.07;;
76063;SDS011;64762;52.006;8.424;2023-05-02T04:48:31;48.83;;;17.13;;
76063;SDS011;64762;52.006;8.424;2023-05-02T04:50:57;45.03;;;15.25;;
76063;SDS011;64762;52.006;8.424;2023-05-02T04:53:23;42.15;;;15.52;;
76063;SDS011;64762;52.006;8.424;2023-05-02T04:55:48;44.30;;;15.47;;
76063;SDS011;64762;52.006;8.424;2023-05-02T04:58:13;42.17;;;16.43;;
76063;SDS011;64762;52.006;8.424;2023-05-02T05:00:39;38.58;;;15.13;;
76063;SDS011;64762;52.006;8.424;2023-05-02T05:03:04;42.10;;;14.73;;
76063;SDS011;64762;52.006;8.424;2023-05-02T05:05:30;42.22;;;14.43;;
76063;SDS011;64762;52.006;8.424;2023-05-02T05:07:55;41.40;;;15.82;;
76063;SDS011;64762;52.006;8.424;2023-05-02T05:10:21;43.10;;;14.60;;
76063;SDS011;64762;52.006;8.424;2023-05-02T05:12:46;38.67;;;14.70;;
76063;SDS011;64762;52.006;8.424;2023-05-02T05:15:13;34.70;;;13.00;;
76063;SDS011;64762;52.006;8.424;2023-05-02T05:17:38;35.58;;;14.23;;
76063;SDS011;64762;52.006;8.424;2023-05-02T05:20:05;31.00;;;13.27;;
76063;SDS011;64762;52.006;8.424;2023-05-02T05:22:37;31.20;;;13.15;;
76063;SDS011;64762;52.006;8.424;2023-05-02T05:25:03;29.08;;;11.43;;
76063;SDS011;64762;52.006;8.424;2023-05-02T05:27:29;22.50;;;9.02;;
76063;SDS011;64762;52.006;8.424;2023-05-02T05:29:54;42.35;;;10.73;;
76063;SDS011;64762;52.006;8.424;2023-05-02T05:32:20;20.57;;;8.73;;
76063;SDS011;64762;52.006;8.424;2023-05-02T05:34:51;19.70;;;7.45;;
76063;SDS011;64762;52.006;8.424;2023-05-02T05:37:18;19.70;;;7.80;;
76063;SDS011;64762;52.006;8.424;2023-05-02T05:39:44;16.48;;;7.03;;
76063;SDS011;64762;52.006;8.424;2023-05-02T05:42:09;17.23;;;6.35;;
76063;SDS011;64762;52.006;8.424;2023-05-02T05:44:35;14.25;;;5.63;;
76063;SDS011;64762;52.006;8.424;2023-05-02T05:47:00;11.90;;;5.40;;
76063;SDS011;64762;52.006;8.424;2023-05-02T05:49:26;11.27;;;5.03;;
76063;SDS011;64762;52.006;8.424;2023-05-02T05:51:51;9.80;;;4.47;;
76063;SDS011;64762;52.006;8.424;2023-05-02T05:54:17;8.93;;;4.37;;
76063;SDS011;64762;52.006;8.424;2023-05-02T05:56:42;14.23;;;4.68;;
76063;SDS011;64762;52.006;8.424;2023-05-02T05:59:08;8.15;;;3.80;;
76063;SDS011;64762;52.006;8.424;2023-05-02T06:01:34;13.70;;;4.67;;
76063;SDS011;64762;52.006;8.424;2023-05-02T06:04:00;9.30;;;4.20;;
76063;SDS011;64762;52.006;8.424;2023-05-02T06:06:26;12.43;;;4.45;;
76063;SDS011;64762;52.006;8.424;2023-05-02T06:08:52;10.93;;;4.38;;
76063;SDS011;64762;52.006;8.424;2023-05-02T06:11:18;12.50;;;5.50;;
76063;SDS011;64762;52.006;8.424;2023-05-02T06:13:43;12.23;;;4.03;;
76063;SDS011;64762;52.006;8.424;2023-05-02T06:16:08;5.63;;;2.77;;
76063;SDS011;64762;52.006;8.424;2023-05-02T06:18:33;5.90;;;2.30;;
76063;SDS011;64762;52.006;8.424;2023-05-02T06:21:02;5.17;;;2.30;;
76063;SDS011;64762;52.006;8.424;2023-05-02T06:23:30;5.35;;;2.75;;
76063;SDS011;64762;52.006;8.424;2023-05-02T06:25:59;6.55;;;2.00;;
76063;SDS011;64762;52.006;8.424;2023-05-02T06:28:26;4.57;;;2.10;;
76063;SDS011;64762;52.006;8.424;2023-05-02T06:33:23;8.50;;;2.22;;
76063;SDS011;64762;52.006;8.424;2023-05-02T06:35:52;8.60;;;2.90;;
76063;SDS011;64762;52.006;8.424;2023-05-02T06:38:17;7.03;;;2.90;;
76063;SDS011;64762;52.006;8.424;2023-05-02T06:40:44;7.22;;;2.65;;
76063;SDS011;64762;52.006;8.424;2023-05-02T06:43:09;7.60;;;2.60;;
76063;SDS011;64762;52.006;8.424;2023-05-02T06:45:35;7.85;;;3.25;;
76063;SDS011;64762;52.006;8.424;2023-05-02T06:48:00;7.97;;;2.87;;
76063;SDS011;64762;52.006;8.424;2023-05-02T06:50:26;12.53;;;2.50;;
76063;SDS011;64762;52.006;8.424;2023-05-02T06:52:51;10.13;;;3.30;;
76063;SDS011;64762;52.006;8.424;2023-05-02T06:55:16;9.80;;;3.00;;
76063;SDS011;64762;52.006;8.424;2023-05-02T06:57:42;9.20;;;3.17;;
76063;SDS011;64762;52.006;8.424;2023-05-02T07:00:07;7.85;;;2.22;;
76063;SDS011;64762;52.006;8.424;2023-05-02T07:02:33;7.07;;;2.47;;
76063;SDS011;64762;52.006;8.424;2023-05-02T07:04:59;7.03;;;3.30;;
76063;SDS011;64762;52.006;8.424;2023-05-02T07:07:24;7.28;;;2.47;;
76063;SDS011;64762;52.006;8.424;2023-05-02T07:09:50;6.97;;;2.70;;
76063;SDS011;64762;52.006;8.424;2023-05-02T07:12:16;7.95;;;2.45;;
76063;SDS011;64762;52.006;8.424;2023-05-02T07:14:41;9.95;;;2.97;;
76063;SDS011;64762;52.006;8.424;2023-05-02T07:17:07;8.48;;;2.88;;
76063;SDS011;64762;52.006;8.424;2023-05-02T07:19:33;9.48;;;3.22;;
76063;SDS011;64762;52.006;8.424;2023-05-02T07:21:58;11.30;;;3.00;;
76063;SDS011;64762;52.006;8.424;2023-05-02T07:24:24;8.23;;;2.70;;
76063;SDS011;64762;52.006;8.424;2023-05-02T07:26:50;8.73;;;2.83;;
76063;SDS011;64762;52.006;8.424;2023-05-02T07:29:15;8.57;;;2.97;;
76063;SDS011;64762;52.006;8.424;2023-05-02T07:31:40;6.83;;;2.67;;
76063;SDS011;64762;52.006;8.424;2023-05-02T07:34:06;6.43;;;2.80;;
76063;SDS011;64762;52.006;8.424;2023-05-02T07:36:31;11.97;;;3.23;;
76063;SDS011;64762;52.006;8.424;2023-05-02T07:38:56;14.70;;;2.73;;
76063;SDS011;64762;52.006;8.424;2023-05-02T07:41:22;9.50;;;3.17;;
76063;SDS011;64762;52.006;8.424;2023-05-02T07:43:47;10.33;;;3.30;;
76063;SDS011;64762;52.006;8.424;2023-05-02T07:46:12;9.07;;;3.00;;
76063;SDS011;64762;52.006;8.424;2023-05-02T07:48:38;7.03;;;2.60;;
76063;SDS011;64762;52.006;8.424;2023-05-02T07:51:06;16.13;;;4.53;;
76063;SDS011;64762;52.006;8.424;2023-05-02T07:53:33;10.85;;;3.92;;
76063;SDS011;64762;52.006;8.424;2023-05-02T07:55:58;11.60;;;3.37;;
76063;SDS011;64762;52.006;8.424;2023-05-02T07:58:23;12.23;;;3.85;;
76063;SDS011;64762;52.006;8.424;2023-05-02T08:00:49;11.95;;;3.70;;
76063;SDS011;64762;52.006;8.424;2023-05-02T08:03:14;12.70;;;3.47;;
76063;SDS011;64762;52.006;8.424;2023-05-02T08:05:40;14.07;;;4.10;;
76063;SDS011;64762;52.006;8.424;2023-05-02T08:08:05;12.43;;;3.63;;
76063;SDS011;64762;52.006;8.424;2023-05-02T08:10:31;12.00;;;3.10;;
76063;SDS011;64762;52.006;8.424;2023-05-02T08:12:56;15.43;;;3.67;;
76063;SDS011;64762;52.006;8.424;2023-05-02T08:15:22;12.37;;;3.60;;
76063;SDS011;64762;52.006;8.424;2023-05-02T08:17:47;11.83;;;3.67;;
76063;SDS011;64762;52.006;8.424;2023-05-02T08:20:12;13.80;;;3.20;;
76063;SDS011;64762;52.006;8.424;2023-05-02T08:22:38;20.33;;;3.93;;
76063;SDS011;64762;52.006;8.424;2023-05-02T08:25:03;10.83;;;3.30;;
76063;SDS011;64762;52.006;8.424;2023-05-02T08:27:28;15.50;;;4.15;;
76063;SDS011;64762;52.006;8.424;2023-05-02T08:29:54;17.93;;;4.47;;
76063;SDS011;64762;52.006;8.424;2023-05-02T08:32:19;13.35;;;3.60;;
76063;SDS011;64762;52.006;8.424;2023-05-02T08:34:46;17.88;;;4.38;;
76063;SDS011;64762;52.006;8.424;2023-05-02T08:37:11;14.00;;;4.10;;
76063;SDS011;64762;52.006;8.424;2023-05-02T08:39:37;15.05;;;3.83;;
76063;SDS011;64762;52.006;8.424;2023-05-02T08:42:06;14.23;;;4.60;;
76063;SDS011;64762;52.006;8.424;2023-05-02T08:44:31;16.83;;;4.72;;
76063;SDS011;64762;52.006;8.424;2023-05-02T08:46:57;11.33;;;3.40;;
76063;SDS011;64762;52.006;8.424;2023-05-02T08:49:24;16.30;;;4.07;;
76063;SDS011;64762;52.006;8.424;2023-05-02T08:51:51;14.93;;;3.80;;
76063;SDS011;64762;52.006;8.424;2023-05-02T08:54:16;10.82;;;3.90;;
76063;SDS011;64762;52.006;8.424;2023-05-02T08:56:42;15.68;;;3.63;;
76063;SDS011;64762;52.006;8.424;2023-05-02T08:59:07;17.97;;;3.80;;
76063;SDS011;64762;52.006;8.424;2023-05-02T09:01:33;14.57;;;4.18;;
76063;SDS011;64762;52.006;8.424;2023-05-02T09:03:59;17.00;;;3.38;;
76063;SDS011;64762;52.006;8.424;2023-05-02T09:06:25;8.77;;;3.20;;
76063;SDS011;64762;52.006;8.424;2023-05-02T09:08:51;15.35;;;3.83;;
76063;SDS011;64762;52.006;8.424;2023-05-02T09:11:17;11.00;;;3.30;;
76063;SDS011;64762;52.006;8.424;2023-05-02T09:13:43;15.15;;;3.90;;
76063;SDS011;64762;52.006;8.424;2023-05-02T09:16:13;15.90;;;2.90;;
76063;SDS011;64762;52.006;8.424;2023-05-02T09:18:49;12.95;;;3.28;;
76063;SDS011;64762;52.006;8.424;2023-05-02T09:21:18;16.55;;;3.55;;
76063;SDS011;64762;52.006;8.424;2023-05-02T09:23:46;13.07;;;3.05;;
76063;SDS011;64762;52.006;8.424;2023-05-02T09:26:23;14.13;;;3.20;;
76063;SDS011;64762;52.006;8.424;2023-05-02T09:28:52;9.98;;;2.75;;
76063;SDS011;64762;52.006;8.424;2023-05-02T09:33:47;12.13;;;2.85;;
76063;SDS011;64762;52.006;8.424;2023-05-02T09:36:15;9.43;;;2.15;;
76063;SDS011;64762;52.006;8.424;2023-05-02T09:38:42;10.15;;;3.00;;
76063;SDS011;64762;52.006;8.424;2023-05-02T09:41:08;8.27;;;2.17;;
76063;SDS011;64762;52.006;8.424;2023-05-02T09:43:34;7.78;;;2.17;;
76063;SDS011;64762;52.006;8.424;2023-05-02T09:46:06;9.55;;;2.80;;
76063;SDS011;64762;52.006;8.424;2023-05-02T09:51:17;7.05;;;2.53;;
76063;SDS011;64762;52.006;8.424;2023-05-02T09:53:43;9.35;;;2.30;;
76063;SDS011;64762;52.006;8.424;2023-05-02T09:56:09;11.20;;;2.80;;
76063;SDS011;64762;52.006;8.424;2023-05-02T09:58:34;12.32;;;3.05;;
76063;SDS011;64762;52.006;8.424;2023-05-02T10:01:00;13.03;;;2.53;;
76063;SDS011;64762;52.006;8.424;2023-05-02T10:03:26;8.73;;;3.07;;
76063;SDS011;64762;52.006;8.424;2023-05-02T10:05:52;13.23;;;2.85;;
76063;SDS011;64762;52.006;8.424;2023-05-02T10:08:19;10.98;;;2.35;;
76063;SDS011;64762;52.006;8.424;2023-05-02T10:10:52;12.07;;;2.28;;
76063;SDS011;64762;52.006;8.424;2023-05-02T10:13:22;8.35;;;2.10;;
76063;SDS011;64762;52.006;8.424;2023-05-02T10:15:53;4.30;;;1.70;;
76063;SDS011;64762;52.006;8.424;2023-05-02T10:21:26;7.13;;;2.20;;
76063;SDS011;64762;52.006;8.424;2023-05-02T10:23:52;11.48;;;2.45;;
76063;SDS011;64762;52.006;8.424;2023-05-02T10:26:17;9.63;;;2.67;;
76063;SDS011;64762;52.006;8.424;2023-05-02T10:28:45;19.35;;;4.28;;
76063;SDS011;64762;52.006;8.424;2023-05-02T10:31:12;18.08;;;3.47;;
76063;SDS011;64762;52.006;8.424;2023-05-02T10:33:38;13.15;;;3.28;;
76063;SDS011;64762;52.006;8.424;2023-05-02T10:36:04;12.52;;;2.55;;
76063;SDS011;64762;52.006;8.424;2023-05-02T10:38:32;7.53;;;2.80;;
76063;SDS011;64762;52.006;8.424;2023-05-02T10:41:04;10.63;;;3.13;;
76063;SDS011;64762;52.006;8.424;2023-05-02T10:43:35;31.58;;;3.38;;
76063;SDS011;64762;52.006;8.424;2023-05-02T10:46:02;10.43;;;2.97;;
76063;SDS011;64762;52.006;8.424;2023-05-02T10:48:27;6.28;;;2.63;;
76063;SDS011;64762;52.006;8.424;2023-05-02T10:50:54;18.48;;;3.13;;
76063;SDS011;64762;52.006;8.424;2023-05-02T10:53:24;8.48;;;2.85;;
76063;SDS011;64762;52.006;8.424;2023-05-02T10:58:35;15.32;;;3.10;;
76063;SDS011;64762;52.006;8.424;2023-05-02T11:06:26;13.50;;;2.85;;
76063;SDS011;64762;52.006;8.424;2023-05-02T11:09:29;15.70;;;3.28;;
76063;SDS011;64762;52.006;8.424;2023-05-02T11:11:42;13.65;;;3.20;;
76063;SDS011;64762;52.006;8.424;2023-05-02T11:14:08;12.18;;;3.20;;
76063;SDS011;64762;52.006;8.424;2023-05-02T11:19:21;12.48;;;3.03;;
76063;SDS011;64762;52.006;8.424;2023-05-02T11:21:46;10.73;;;2.87;;
76063;SDS011;64762;52.006;8.424;2023-05-02T11:29:57;12.73;;;3.40;;
76063;SDS011;64762;52.006;8.424;2023-05-02T11:35:16;13.98;;;3.17;;
76063;SDS011;64762;52.006;8.424;2023-05-02T11:37:54;14.00;;;3.03;;
76063;SDS011;64762;52.006;8.424;2023-05-02T11:42:46;9.27;;;2.85;;
76063;SDS011;64762;52.006;8.424;2023-05-02T11:45:12;9.95;;;3.00;;
76063;SDS011;64762;52.006;8.424;2023-05-02T11:47:37;12.05;;;3.38;;
76063;SDS011;64762;52.006;8.424;2023-05-02T11:50:05;16.42;;;3.75;;
76063;SDS011;64762;52.006;8.424;2023-05-02T11:52:41;14.05;;;3.30;;
76063;SDS011;64762;52.006;8.424;2023-05-02T11:55:09;10.98;;;3.17;;
76063;SDS011;64762;52.006;8.424;2023-05-02T11:57:36;8.95;;;3.10;;
76063;SDS011;64762;52.006;8.424;2023-05-02T12:00:03;14.80;;;3.55;;
76063;SDS011;64762;52.006;8.424;2023-05-02T12:02:35;14.63;;;3.30;;
76063;SDS011;64762;52.006;8.424;2023-05-02T12:05:05;8.52;;;3.20;;
76063;SDS011;64762;52.006;8.424;2023-05-02T12:07:40;6.28;;;2.90;;
76063;SDS011;64762;52.006;8.424;2023-05-02T12:10:07;10.15;;;2.75;;
76063;SDS011;64762;52.006;8.424;2023-05-02T12:12:33;8.38;;;3.13;;
76063;SDS011;64762;52.006;8.424;2023-05-02T12:15:06;11.50;;;2.90;;
76063;SDS011;64762;52.006;8.424;2023-05-02T12:17:35;11.48;;;2.92;;
76063;SDS011;64762;52.006;8.424;2023-05-02T12:20:02;7.18;;;2.65;;
76063;SDS011;64762;52.006;8.424;2023-05-02T12:22:29;12.95;;;3.65;;
76063;SDS011;64762;52.006;8.424;2023-05-02T12:24:54;9.65;;;2.80;;
76063;SDS011;64762;52.006;8.424;2023-05-02T12:27:20;10.50;;;3.00;;
76063;SDS011;64762;52.006;8.424;2023-05-02T12:29:46;11.57;;;3.25;;
76063;SDS011;64762;52.006;8.424;2023-05-02T12:32:12;9.80;;;3.20;;
76063;SDS011;64762;52.006;8.424;2023-05-02T12:34:38;11.32;;;3.45;;
76063;SDS011;64762;52.006;8.424;2023-05-02T12:37:04;16.98;;;4.05;;
76063;SDS011;64762;52.006;8.424;2023-05-02T12:39:40;17.17;;;4.15;;
76063;SDS011;64762;52.006;8.424;2023-05-02T12:42:10;13.68;;;3.28;;
76063;SDS011;64762;52.006;8.424;2023-05-02T12:44:36;11.18;;;3.38;;
76063;SDS011;64762;52.006;8.424;2023-05-02T12:47:02;10.18;;;4.10;;
76063;SDS011;64762;52.006;8.424;2023-05-02T12:49:28;13.90;;;4.13;;
76063;SDS011;64762;52.006;8.424;2023-05-02T12:51:53;14.77;;;3.80;;
76063;SDS011;64762;52.006;8.424;2023-05-02T12:54:20;9.15;;;3.83;;
76063;SDS011;64762;52.006;8.424;2023-05-02T12:56:46;14.43;;;4.63;;
76063;SDS011;64762;52.006;8.424;2023-05-02T12:59:27;10.73;;;3.35;;
76063;SDS011;64762;52.006;8.424;2023-05-02T13:01:53;15.52;;;3.70;;
76063;SDS011;64762;52.006;8.424;2023-05-02T13:04:18;9.87;;;3.43;;
76063;SDS011;64762;52.006;8.424;2023-05-02T13:06:44;11.53;;;3.60;;
76063;SDS011;64762;52.006;8.424;2023-05-02T13:09:09;11.88;;;3.35;;
76063;SDS011;64762;52.006;8.424;2023-05-02T13:11:34;10.27;;;4.07;;
76063;SDS011;64762;52.006;8.424;2023-05-02T13:14:00;13.63;;;3.30;;
76063;SDS011;64762;52.006;8.424;2023-05-02T13:16:28;13.35;;;3.58;;
76063;SDS011;64762;52.006;8.424;2023-05-02T13:18:54;10.57;;;3.55;;
76063;SDS011;64762;52.006;8.424;2023-05-02T13:21:19;10.30;;;4.27;;
76063;SDS011;64762;52.006;8.424;2023-05-02T13:23:46;10.33;;;3.30;;
76063;SDS011;64762;52.006;8.424;2023-05-02T13:26:11;8.85;;;3.63;;
76063;SDS011;64762;52.006;8.424;2023-05-02T13:28:37;11.85;;;3.88;;
76063;SDS011;64762;52.006;8.424;2023-05-02T13:31:02;17.50;;;3.83;;
76063;SDS011;64762;52.006;8.424;2023-05-02T13:33:28;14.10;;;3.53;;
76063;SDS011;64762;52.006;8.424;2023-05-02T13:35:53;9.93;;;4.33;;
76063;SDS011;64762;52.006;8.424;2023-05-02T13:38:18;11.33;;;3.80;;
76063;SDS011;64762;52.006;8.424;2023-05-02T13:40:44;11.77;;;4.03;;
76063;SDS011;64762;52.006;8.424;2023-05-02T13:43:09;14.60;;;4.33;;
76063;SDS011;64762;52.006;8.424;2023-05-02T13:45:34;10.30;;;4.13;;
76063;SDS011;64762;52.006;8.424;2023-05-02T13:48:00;12.77;;;4.32;;
76063;SDS011;64762;52.006;8.424;2023-05-02T13:50:25;10.03;;;3.53;;
76063;SDS011;64762;52.006;8.424;2023-05-02T13:52:50;7.82;;;3.45;;
76063;SDS011;64762;52.006;8.424;2023-05-02T13:55:16;12.53;;;4.07;;
76063;SDS011;64762;52.006;8.424;2023-05-02T13:57:41;13.67;;;3.70;;
76063;SDS011;64762;52.006;8.424;2023-05-02T14:00:07;9.93;;;4.30;;
76063;SDS011;64762;52.006;8.424;2023-05-02T14:02:34;12.07;;;4.82;;
76063;SDS011;64762;52.006;8.424;2023-05-02T14:05:00;13.48;;;4.18;;
76063;SDS011;64762;52.006;8.424;2023-05-02T14:07:25;13.93;;;4.10;;
76063;SDS011;64762;52.006;8.424;2023-05-02T14:09:50;10.80;;;4.37;;
76063;SDS011;64762;52.006;8.424;2023-05-02T14:12:16;13.03;;;4.17;;
76063;SDS011;64762;52.006;8.424;2023-05-02T14:14:41;10.93;;;4.03;;
76063;SDS011;64762;52.006;8.424;2023-05-02T14:17:06;10.67;;;4.10;;
76063;SDS011;64762;52.006;8.424;2023-05-02T14:19:32;11.40;;;4.20;;
76063;SDS011;64762;52.006;8.424;2023-05-02T14:21:57;11.38;;;4.15;;
76063;SDS011;64762;52.006;8.424;2023-05-02T14:24:24;13.75;;;3.67;;
76063;SDS011;64762;52.006;8.424;2023-05-02T14:26:49;13.93;;;4.45;;
76063;SDS011;64762;52.006;8.424;2023-05-02T14:29:15;11.33;;;3.80;;
76063;SDS011;64762;52.006;8.424;2023-05-02T14:31:41;15.80;;;4.55;;
76063;SDS011;64762;52.006;8.424;2023-05-02T14:34:06;12.15;;;3.95;;
76063;SDS011;64762;52.006;8.424;2023-05-02T14:36:31;10.88;;;4.30;;
76063;SDS011;64762;52.006;8.424;2023-05-02T14:38:57;15.15;;;4.07;;
76063;SDS011;64762;52.006;8.424;2023-05-02T14:41:23;11.23;;;4.07;;
76063;SDS011;64762;52.006;8.424;2023-05-02T14:43:50;12.00;;;4.50;;
76063;SDS011;64762;52.006;8.424;2023-05-02T14:46:15;9.32;;;3.97;;
76063;SDS011;64762;52.006;8.424;2023-05-02T14:48:40;11.20;;;4.00;;
76063;SDS011;64762;52.006;8.424;2023-05-02T14:51:06;12.47;;;4.40;;
76063;SDS011;64762;52.006;8.424;2023-05-02T14:53:31;14.00;;;3.50;;
76063;SDS011;64762;52.006;8.424;2023-05-02T14:55:57;12.67;;;4.53;;
76063;SDS011;64762;52.006;8.424;2023-05-02T14:58:22;9.68;;;4.43;;
76063;SDS011;64762;52.006;8.424;2023-05-02T15:00:47;14.10;;;3.47;;
76063;SDS011;64762;52.006;8.424;2023-05-02T15:03:12;10.53;;;4.10;;
76063;SDS011;64762;52.006;8.424;2023-05-02T15:05:38;9.10;;;3.30;;
76063;SDS011;64762;52.006;8.424;2023-05-02T15:08:04;12.20;;;3.75;;
76063;SDS011;64762;52.006;8.424;2023-05-02T15:10:29;10.40;;;3.80;;
76063;SDS011;64762;52.006;8.424;2023-05-02T15:12:55;10.13;;;3.80;;
76063;SDS011;64762;52.006;8.424;2023-05-02T15:15:20;9.27;;;3.50;;
76063;SDS011;64762;52.006;8.424;2023-05-02T15:17:49;12.43;;;4.68;;
76063;SDS011;64762;52.006;8.424;2023-05-02T15:20:15;11.18;;;4.25;;
76063;SDS011;64762;52.006;8.424;2023-05-02T15:22:40;13.40;;;4.00;;
76063;SDS011;64762;52.006;8.424;2023-05-02T15:25:05;11.70;;;3.80;;